Time;durP1;ratioP1;P1;durP2;ratioP2;P2;SDS_P1;SDS_P2;PMS_P1;PMS_P2;Temp;Humidity;BMP_temperature;BMP_pressure;BME280_temperature;BME280_humidity;BME280_pressure;Samples;Min_cycle;Max_cycle;Signal;HPM_P1;HPM_P2
2023/02/01 00:01:49;;;;;;;4.90;3.00;;;6.30;99.90;;;;;;5084260;28;20036;-49
2023/02/01 00:04:15;;;;;;;7.28;3.78;;;6.40;99.90;;;;;;5052650;28;20033;-49
2023/02/01 00:06:41;;;;;;;8.82;5.32;;;6.40;99.90;;;;;;5077508;28;20041;-49
2023/02/01 00:09:07;;;;;;;5.57;3.33;;;6.30;99.90;;;;;;5038718;28;20041;-49
2023/02/01 00:11:33;;;;;;;9.00;3.03;;;6.30;99.90;;;;;;5059601;28;20540;-49
2023/02/01 00:13:59;;;;;;;6.68;3.10;;;6.40;99.90;;;;;;5059326;28;20031;-48
2023/02/01 00:16:28;;;;;;;5.32;3.55;;;6.40;99.90;;;;;;5060882;28;20033;-49
2023/02/01 00:19:03;;;;;;;6.75;3.03;;;6.40;99.90;;;;;;5059665;28;20504;-49
2023/02/01 00:21:30;;;;;;;6.25;3.03;;;6.50;99.90;;;;;;5059176;28;20043;-50
2023/02/01 00:23:56;;;;;;;8.93;4.68;;;6.60;99.90;;;;;;5059705;28;20024;-50
2023/02/01 00:26:28;;;;;;;6.90;3.67;;;;;;;;;;5060864;28;20037;-49
2023/02/01 00:28:54;;;;;;;6.90;4.15;;;;;;;;;;5059509;28;20043;-50
2023/02/01 00:31:20;;;;;;;7.35;3.90;;;;;;;;;;5059164;28;20032;-49
2023/02/01 00:33:49;;;;;;;7.40;3.95;;;;;;;;;;5069336;28;20036;-49
2023/02/01 00:36:15;;;;;;;7.82;3.75;;;;;;;;;;5059418;28;20124;-49
2023/02/01 00:38:41;;;;;;;6.80;4.18;;;;;;;;;;5055846;28;20116;-49
2023/02/01 00:41:10;;;;;;;6.35;3.95;;;;;;;;;;5055789;28;20029;-47
2023/02/01 00:43:36;;;;;;;9.27;4.95;;;;;;;;;;5038986;28;20033;-47
2023/02/01 00:46:03;;;;;;;8.40;5.03;;;6.90;99.90;;;;;;5052476;28;20033;-47
2023/02/01 00:48:29;;;;;;;8.45;4.63;;;;;;;;;;5058703;28;20032;-47
2023/02/01 00:51:00;;;;;;;7.57;3.95;;;7.10;99.90;;;;;;5041640;28;20045;-48
2023/02/01 00:53:26;;;;;;;8.50;5.00;;;;;;;;;;5045844;28;20396;-47
2023/02/01 00:55:52;;;;;;;9.77;6.30;;;;;;;;;;5055845;28;20049;-47
2023/02/01 00:58:18;;;;;;;10.85;5.97;;;;;;;;;;5037515;28;20128;-48
2023/02/01 01:00:44;;;;;;;12.85;7.00;;;;;;;;;;5036878;28;20029;-47
2023/02/01 01:03:19;;;;;;;45.88;23.13;;;6.90;99.90;;;;;;5055429;28;20029;-47
2023/02/01 01:05:46;;;;;;;37.00;18.20;;;6.80;99.90;;;;;;5055401;28;20029;-48
2023/02/01 01:08:12;;;;;;;64.57;34.20;;;6.60;99.90;;;;;;5055889;28;20090;-48
2023/02/01 01:10:38;;;;;;;32.17;17.55;;;6.50;99.90;;;;;;5055046;28;20129;-48
2023/02/01 01:13:04;;;;;;;11.80;6.63;;;6.30;99.90;;;;;;5055367;28;20053;-48
2023/02/01 01:15:30;;;;;;;10.48;6.38;;;;;;;;;;5055505;28;20013;-48
2023/02/01 01:17:56;;;;;;;9.05;5.50;;;5.50;99.90;;;;;;5055091;28;20028;-48
2023/02/01 01:20:22;;;;;;;13.05;6.32;;;5.70;99.90;;;;;;5055319;28;20021;-47
2023/02/01 01:22:48;;;;;;;10.57;6.80;;;5.70;99.90;;;;;;5052856;28;20120;-48
2023/02/01 01:25:14;;;;;;;10.63;5.60;;;5.50;99.90;;;;;;5055203;28;20540;-48
2023/02/01 01:27:40;;;;;;;12.80;6.85;;;5.20;99.90;;;;;;5054895;28;20025;-48
2023/02/01 01:30:07;;;;;;;13.18;7.05;;;5.10;99.90;;;;;;5054985;28;20024;-48
2023/02/01 01:32:33;;;;;;;10.57;5.90;;;5.00;99.90;;;;;;5036614;28;20551;-47
2023/02/01 01:34:58;;;;;;;8.15;4.90;;;4.80;99.90;;;;;;5052764;28;20129;-48
2023/02/01 01:37:24;;;;;;;9.40;5.50;;;;;;;;;;5055224;28;20029;-48
2023/02/01 01:39:50;;;;;;;9.05;5.50;;;4.60;99.90;;;;;;5070280;28;20033;-48
2023/02/01 01:42:16;;;;;;;10.27;5.80;;;4.60;99.90;;;;;;5055447;28;20025;-48
2023/02/01 01:45:25;;;;;;;10.55;5.47;;;4.60;99.90;;;;;;5086682;28;20041;-47
2023/02/01 01:48:06;;;;;;;9.60;5.35;;;4.70;99.90;;;;;;5053075;28;20037;-48
2023/02/01 01:50:38;;;;;;;10.40;6.32;;;4.70;99.90;;;;;;5035932;28;20048;-48
2023/02/01 01:53:07;;;;;;;14.85;8.75;;;4.90;99.90;;;;;;5053025;28;20044;-48
2023/02/01 01:55:36;;;;;;;37.15;19.25;;;5.10;99.90;;;;;;5052603;28;20053;-48
2023/02/01 01:58:05;;;;;;;50.45;21.75;;;5.30;99.90;;;;;;5032996;28;20191;-47
2023/02/01 02:00:33;;;;;;;14.50;8.50;;;5.40;99.90;;;;;;5032945;28;20456;-47
2023/02/01 02:03:12;;;;;;;10.65;5.63;;;5.30;99.90;;;;;;5032895;28;20096;-47
2023/02/01 02:05:38;;;;;;;8.57;4.78;;;5.30;99.90;;;;;;5016017;28;20075;-48
2023/02/01 02:08:04;;;;;;;9.25;5.15;;;5.00;99.90;;;;;;5032740;28;20068;-47
2023/02/01 02:13:17;;;;;;;9.82;4.85;;;4.90;99.90;;;;;;5032897;28;20049;-48
2023/02/01 02:16:03;;;;;;;15.02;6.70;;;5.00;99.90;;;;;;5032614;28;20120;-48
2023/02/01 02:18:38;;;;;;;9.60;5.10;;;5.20;99.90;;;;;;5032446;28;20033;-48
2023/02/01 02:21:36;;;;;;;8.43;5.40;;;5.10;99.90;;;;;;5032508;28;20021;-47
2023/02/01 02:24:20;;;;;;;11.05;5.43;;;5.10;99.90;;;;;;5005522;28;20046;-48
2023/02/01 02:27:26;;;;;;;8.75;4.35;;;4.90;99.90;;;;;;4993185;28;20042;-48
2023/02/01 02:30:05;;;;;;;10.35;5.13;;;4.60;99.90;;;;;;4954229;28;20534;-47
2023/02/01 02:32:43;;;;;;;9.27;4.10;;;4.50;99.90;;;;;;4954149;28;20035;-48
2023/02/01 02:35:26;;;;;;;10.90;5.78;;;4.50;99.90;;;;;;4973106;28;20113;-48
2023/02/01 02:38:26;;;;;;;8.60;5.00;;;4.40;99.90;;;;;;4973355;28;20027;-47
2023/02/01 02:41:06;;;;;;;12.55;5.32;;;4.30;99.90;;;;;;4992481;28;20084;-48
2023/02/01 02:49:29;;;;;;;49.03;23.10;;;4.80;99.90;;;;;;4992632;28;20037;-47
2023/02/01 02:54:51;;;;;;;26.58;16.63;;;5.10;99.90;;;;;;4992557;28;20064;-48
2023/02/01 03:05:45;;;;;;;8.95;5.00;;;4.20;99.90;;;;;;4995136;28;20139;-47
2023/02/01 03:08:13;;;;;;;7.85;5.03;;;3.90;99.90;;;;;;5051516;28;20103;-47
2023/02/01 03:11:03;;;;;;;10.23;5.85;;;4.00;99.90;;;;;;5051209;28;20084;-47
2023/02/01 03:13:56;;;;;;;40.83;15.50;;;3.90;99.90;;;;;;5051519;28;20104;-48
2023/02/01 03:16:27;;;;;;;;;;;4.00;99.90;;;;;;5035018;28;20045;-47
2023/02/01 03:19:02;;;;;;;21.63;11.25;;;4.40;99.90;;;;;;5034604;28;19908;-47
2023/02/01 03:21:53;;;;;;;19.80;10.55;;;4.70;99.90;;;;;;5053642;28;20063;-47
2023/02/01 03:24:34;;;;;;;20.42;12.45;;;5.00;99.90;;;;;;5053645;28;20055;-48
2023/02/01 03:27:22;;;;;;;26.55;14.75;;;5.20;99.90;;;;;;5053760;28;20051;-47
2023/02/01 03:30:07;;;;;;;23.65;12.95;;;5.40;99.90;;;;;;5058313;28;20033;-48
2023/02/01 03:32:58;;;;;;;20.58;13.40;;;5.60;99.90;;;;;;5034829;28;20049;-47
2023/02/01 03:35:44;;;;;;;19.08;12.38;;;5.60;99.90;;;;;;5053129;28;20114;-48
2023/02/01 03:38:28;;;;;;;26.42;15.70;;;5.70;99.90;;;;;;5052965;28;20190;-48
2023/02/01 03:41:03;;;;;;;12.77;8.93;;;5.70;99.90;;;;;;5052932;28;20037;-48
2023/02/01 03:43:33;;;;;;;13.98;8.70;;;5.80;99.90;;;;;;5053101;28;20040;-47
2023/02/01 03:46:04;;;;;;;13.55;8.95;;;5.80;99.90;;;;;;5052595;28;20040;-48
2023/02/01 03:48:30;;;;;;;12.50;8.25;;;5.80;99.90;;;;;;5053047;28;20078;-48
2023/02/01 03:50:58;;;;;;;10.20;6.90;;;5.80;99.90;;;;;;5052642;28;20029;-48
2023/02/01 03:53:26;;;;;;;10.85;6.97;;;5.90;99.90;;;;;;5053427;28;20033;-47
2023/02/01 03:55:53;;;;;;;8.52;5.80;;;6.00;99.90;;;;;;5052650;28;20057;-48
2023/02/01 03:58:21;;;;;;;9.75;6.03;;;6.10;99.90;;;;;;5053241;28;20021;-48
2023/02/01 04:00:58;;;;;;;11.93;6.57;;;6.00;99.90;;;;;;5053125;28;20049;-48
2023/02/01 04:03:24;;;;;;;8.93;5.57;;;6.00;99.90;;;;;;5053105;28;20435;-47
2023/02/01 04:05:51;;;;;;;9.93;6.15;;;6.10;99.90;;;;;;5052730;28;20057;-47
2023/02/01 04:08:20;;;;;;;11.65;6.10;;;6.00;99.90;;;;;;5052955;28;20107;-48
2023/02/01 04:10:46;;;;;;;8.98;5.50;;;6.00;99.90;;;;;;5052592;28;20040;-49
2023/02/01 04:13:12;;;;;;;10.45;7.88;;;5.90;99.90;;;;;;5070268;28;20083;-48
2023/02/01 04:15:38;;;;;;;18.02;11.60;;;5.70;99.90;;;;;;5067900;28;20041;-48
2023/02/01 04:18:03;;;;;;;20.02;12.48;;;5.90;99.90;;;;;;5037001;28;20025;-48
2023/02/01 04:20:29;;;;;;;14.80;8.48;;;5.80;99.90;;;;;;5054599;28;20128;-47
2023/02/01 04:22:55;;;;;;;16.13;9.68;;;5.90;99.90;;;;;;5056401;28;20742;-48
2023/02/01 04:25:21;;;;;;;12.15;7.40;;;6.00;99.90;;;;;;5088162;28;20033;-48
2023/02/01 04:27:47;;;;;;;8.23;5.57;;;6.10;99.90;;;;;;5056620;28;20469;-48
2023/02/01 04:30:13;;;;;;;12.68;5.60;;;6.10;99.90;;;;;;5056700;28;20025;-47
2023/02/01 04:32:39;;;;;;;7.80;4.85;;;6.20;99.90;;;;;;5056844;28;20158;-48
2023/02/01 04:35:06;;;;;;;7.80;4.88;;;6.20;99.90;;;;;;5056950;28;20227;-48
2023/02/01 04:37:32;;;;;;;11.30;5.22;;;6.10;99.90;;;;;;5056844;28;20021;-48
2023/02/01 04:39:58;;;;;;;7.00;4.93;;;6.00;99.90;;;;;;5084812;28;20037;-47
2023/02/01 04:42:24;;;;;;;6.90;4.20;;;5.70;99.90;;;;;;5077032;28;20523;-47
2023/02/01 04:44:50;;;;;;;7.70;4.70;;;5.60;99.90;;;;;;5036649;28;20029;-48
2023/02/01 04:47:16;;;;;;;8.70;5.20;;;5.50;99.90;;;;;;5036478;28;20037;-47
2023/02/01 04:49:42;;;;;;;9.45;5.78;;;5.50;99.90;;;;;;5034272;28;20083;-48
2023/02/01 04:52:08;;;;;;;10.13;5.47;;;5.40;99.90;;;;;;5034299;28;20041;-47
2023/02/01 04:54:34;;;;;;;14.48;5.70;;;5.50;99.90;;;;;;5036680;28;20021;-48
2023/02/01 04:56:59;;;;;;;9.27;5.18;;;5.70;99.90;;;;;;5036026;28;20045;-48
2023/02/01 04:59:26;;;;;;;13.23;6.95;;;5.90;99.90;;;;;;5036367;28;20455;-48
2023/02/01 05:01:51;;;;;;;11.57;7.00;;;6.00;99.90;;;;;;5036085;28;20030;-47
2023/02/01 05:04:18;;;;;;;10.48;5.95;;;6.10;99.90;;;;;;5036064;28;20079;-47
2023/02/01 05:06:44;;;;;;;7.90;5.10;;;6.10;99.90;;;;;;5047933;28;20487;-48
2023/02/01 05:09:11;;;;;;;9.05;5.28;;;;;;;;;;5056447;28;20029;-47
2023/02/01 05:14:21;;;;;;;10.82;5.78;;;6.20;99.90;;;;;;5051681;28;20430;-47
2023/02/01 05:16:47;;;;;;;9.63;6.00;;;6.10;99.90;;;;;;5070383;28;20040;-48
2023/02/01 05:19:12;;;;;;;10.30;6.90;;;5.90;99.90;;;;;;5056300;28;20082;-48
2023/02/01 05:21:38;;;;;;;8.25;6.45;;;6.00;99.90;;;;;;5055534;28;20074;-48
2023/02/01 05:24:12;;;;;;;9.85;7.60;;;6.00;99.90;;;;;;5055580;28;20028;-48
2023/02/01 05:26:41;;;;;;;13.98;9.95;;;5.90;99.90;;;;;;5055368;28;20045;-48
2023/02/01 05:29:08;;;;;;;12.32;7.28;;;5.90;99.90;;;;;;5055690;28;20396;-48
2023/02/01 05:31:34;;;;;;;16.05;6.45;;;;;;;;;;5055468;28;20145;-48
2023/02/01 05:34:00;;;;;;;19.27;12.57;;;6.00;99.90;;;;;;5055581;28;20035;-48
2023/02/01 05:36:26;;;;;;;15.65;11.18;;;;;;;;;;5054458;28;20025;-48
2023/02/01 05:38:52;;;;;;;14.13;6.53;;;6.10;99.90;;;;;;5055391;28;20033;-47
2023/02/01 05:41:17;;;;;;;10.82;5.47;;;6.20;99.90;;;;;;5086795;28;20043;-49
2023/02/01 05:43:43;;;;;;;11.35;6.82;;;;;;;;;;5086467;28;20120;-48
2023/02/01 05:46:12;;;;;;;9.45;5.45;;;;;;;;;;5055151;28;20035;-48
2023/02/01 05:48:39;;;;;;;8.52;5.60;;;6.40;99.90;;;;;;5086073;28;20060;-48
2023/02/01 05:51:04;;;;;;;10.15;5.13;;;6.40;99.90;;;;;;5054924;28;20033;-48
2023/02/01 05:53:30;;;;;;;9.75;5.95;;;6.40;99.90;;;;;;5053506;28;20515;-48
2023/02/01 05:55:56;;;;;;;8.07;5.65;;;6.30;99.90;;;;;;5034894;28;20202;-48
2023/02/01 05:58:22;;;;;;;13.20;7.03;;;6.40;99.90;;;;;;5077855;28;20033;-48
2023/02/01 06:00:47;;;;;;;11.90;6.97;;;6.50;99.90;;;;;;5054343;28;20071;-48
2023/02/01 06:03:13;;;;;;;10.45;7.88;;;6.50;99.90;;;;;;5055151;28;20055;-48
2023/02/01 06:05:39;;;;;;;10.85;7.55;;;6.50;99.90;;;;;;5039440;28;20033;-47
2023/02/01 06:08:07;;;;;;;11.07;6.80;;;6.50;99.90;;;;;;5057837;28;20092;-48
2023/02/01 06:10:33;;;;;;;16.05;6.03;;;6.40;99.90;;;;;;5056273;28;20041;-48
2023/02/01 06:12:59;;;;;;;12.38;6.75;;;6.20;99.90;;;;;;5057089;28;20051;-48
2023/02/01 06:15:24;;;;;;;11.07;6.07;;;6.30;99.90;;;;;;5083315;28;20040;-48
2023/02/01 06:17:50;;;;;;;11.82;6.53;;;6.30;99.90;;;;;;5052869;28;20044;-48
2023/02/01 06:20:16;;;;;;;10.82;5.50;;;6.40;99.90;;;;;;5054632;28;20029;-48
2023/02/01 06:22:42;;;;;;;10.50;6.07;;;6.30;99.90;;;;;;5054641;28;20051;-48
2023/02/01 06:25:10;;;;;;;10.35;6.22;;;6.30;99.90;;;;;;5019715;28;20037;-47
2023/02/01 06:27:36;;;;;;;9.48;5.63;;;6.40;99.90;;;;;;5029508;28;20033;-47
2023/02/01 06:30:03;;;;;;;14.45;6.60;;;6.40;99.90;;;;;;5043253;28;20028;-47
2023/02/01 06:32:29;;;;;;;9.73;5.57;;;;;;;;;;5053595;28;20029;-48
2023/02/01 06:34:56;;;;;;;11.77;6.43;;;6.60;99.90;;;;;;5052283;28;20039;-48
2023/02/01 06:37:24;;;;;;;18.92;11.05;;;6.70;99.90;;;;;;5054080;28;20040;-47
2023/02/01 06:39:50;;;;;;;31.75;18.05;;;4.80;99.90;;;;;;5054175;28;20068;-48
2023/02/01 06:42:16;;;;;;;59.72;34.17;;;6.60;99.90;;;;;;5053657;28;20384;-47
2023/02/01 06:44:42;;;;;;;60.60;33.50;;;6.60;99.90;;;;;;5053901;28;20035;-47
2023/02/01 06:47:08;;;;;;;55.00;36.08;;;;;;;;;;5054215;28;20099;-47
2023/02/01 06:49:34;;;;;;;60.92;36.25;;;;;;;;;;5035726;28;20118;-48
2023/02/01 06:52:00;;;;;;;37.08;23.00;;;;;;;;;;5054233;28;20031;-47
2023/02/01 06:54:27;;;;;;;32.95;19.42;;;6.70;99.90;;;;;;5052143;28;20076;-47
2023/02/01 06:56:52;;;;;;;29.73;16.98;;;6.60;99.90;;;;;;5054128;28;20111;-47
2023/02/01 06:59:18;;;;;;;23.70;13.52;;;6.70;99.90;;;;;;5054414;28;20431;-47
2023/02/01 07:01:44;;;;;;;24.88;14.27;;;6.50;99.90;;;;;;5055178;28;20025;-48
2023/02/01 07:04:13;;;;;;;37.70;19.08;;;6.60;99.90;;;;;;5057916;28;20025;-48
2023/02/01 07:06:39;;;;;;;38.50;20.40;;;6.60;99.90;;;;;;5058136;28;20086;-48
2023/02/01 07:09:06;;;;;;;27.95;15.05;;;7.00;99.90;;;;;;5023431;28;20041;-48
2023/02/01 07:11:32;;;;;;;17.85;11.38;;;7.20;99.90;;;;;;5056521;28;20040;-48
2023/02/01 07:13:58;;;;;;;42.10;24.20;;;7.20;99.90;;;;;;5021027;28;20029;-47
2023/02/01 07:16:24;;;;;;;40.53;23.00;;;7.20;99.90;;;;;;5054174;28;20483;-47
2023/02/01 07:18:51;;;;;;;52.85;33.03;;;7.40;99.90;;;;;;5053384;28;20029;-48
2023/02/01 07:21:17;;;;;;;60.47;41.92;;;7.50;99.90;;;;;;5053752;28;20032;-47
2023/02/01 07:23:43;;;;;;;66.40;45.40;;;7.40;99.90;;;;;;5053631;28;20361;-51
2023/02/01 07:26:14;;;;;;;66.50;44.92;;;;;;;;;;5031596;28;20044;-48
2023/02/01 07:28:41;;;;;;;63.63;36.97;;;;;;;;;;5050580;28;20025;-49
2023/02/01 07:31:09;;;;;;;62.63;39.60;;;7.60;99.90;;;;;;5051476;28;20131;-49
2023/02/01 07:33:35;;;;;;;55.78;34.35;;;7.80;99.90;;;;;;5034066;28;20064;-50
2023/02/01 07:36:03;;;;;;;45.90;29.40;;;7.80;99.90;;;;;;5051127;28;20061;-49
2023/02/01 07:38:29;;;;;;;47.22;32.58;;;;;;;;;;5053148;28;20346;-49
2023/02/01 07:40:59;;;;;;;51.58;34.78;;;;;;;;;;5067071;28;20382;-49
2023/02/01 07:43:26;;;;;;;64.90;38.60;;;;;;;;;;5051060;28;20025;-50
2023/02/01 07:45:52;;;;;;;50.95;32.95;;;;;;;;;;5049253;28;20036;-49
2023/02/01 07:48:18;;;;;;;39.00;26.58;;;10.00;99.90;;;;;;5053092;28;20021;-50
2023/02/01 07:50:44;;;;;;;38.78;27.33;;;10.10;99.90;;;;;;5050326;28;20484;-49
2023/02/01 07:53:10;;;;;;;36.95;26.95;;;9.90;99.90;;;;;;5047264;28;20404;-49
2023/02/01 07:55:38;;;;;;;39.13;25.05;;;9.80;99.90;;;;;;5016900;28;20040;-51
2023/02/01 07:58:04;;;;;;;52.08;32.25;;;9.60;99.90;;;;;;5052700;28;20033;-48
2023/02/01 08:03:14;;;;;;;67.78;37.17;;;9.60;99.90;;;;;;5053041;28;20047;-49
2023/02/01 08:05:39;;;;;;;83.45;47.65;;;9.60;99.90;;;;;;5090151;28;20544;-48
2023/02/01 08:08:06;;;;;;;96.55;58.83;;;9.60;99.90;;;;;;5090364;28;20082;-48
2023/02/01 08:10:32;;;;;;;73.72;45.75;;;;;;;;;;5090240;28;20036;-50
2023/02/01 08:12:59;;;;;;;58.35;36.97;;;10.00;99.90;;;;;;5073656;28;20585;-48
2023/02/01 08:15:27;;;;;;;41.50;27.13;;;10.00;99.90;;;;;;5090274;28;20484;-48
2023/02/01 08:17:54;;;;;;;31.67;19.45;;;9.90;99.90;;;;;;5090870;28;20028;-49
2023/02/01 08:20:23;;;;;;;25.80;15.93;;;9.90;99.90;;;;;;5090769;28;20476;-48
2023/02/01 08:22:52;;;;;;;28.95;16.65;;;10.10;99.90;;;;;;5090576;28;20124;-48
2023/02/01 08:25:18;;;;;;;23.75;13.07;;;10.10;99.90;;;;;;5090921;28;20060;-48
2023/02/01 08:27:45;;;;;;;22.67;14.38;;;;;;;;;;5090815;28;20104;-48
2023/02/01 08:30:11;;;;;;;28.10;15.75;;;;;;;;;;5090868;28;20032;-48
2023/02/01 08:32:37;;;;;;;17.05;10.70;;;13.00;99.90;;;;;;5057096;28;20044;-51
2023/02/01 08:35:03;;;;;;;53.97;36.05;;;13.20;99.90;;;;;;5073629;28;20412;-51
2023/02/01 08:37:30;;;;;;;62.53;44.00;;;;;;;;;;5003879;28;20036;-49
2023/02/01 08:39:55;;;;;;;36.63;24.30;;;14.10;99.90;;;;;;5027667;28;20413;-49
2023/02/01 08:45:07;;;;;;;40.17;28.63;;;13.60;99.90;;;;;;5052343;28;20052;-49
2023/02/01 08:47:33;;;;;;;38.90;24.63;;;;;;;;;;5067244;28;20045;-50
2023/02/01 08:49:59;;;;;;;73.43;49.53;;;12.70;99.90;;;;;;5067339;28;20033;-50
2023/02/01 08:52:25;;;;;;;39.92;28.98;;;;;;;;;;5052667;28;20040;-50
2023/02/01 08:54:51;;;;;;;52.08;34.28;;;;;;;;;;5052423;28;20031;-49
2023/02/01 08:57:17;;;;;;;55.95;38.97;;;11.60;99.90;;;;;;5050793;28;20488;-51
2023/02/01 08:59:46;;;;;;;62.20;43.10;;;11.30;99.90;;;;;;5055353;28;20033;-50
2023/02/01 09:02:16;;;;;;;68.15;46.30;;;11.20;99.90;;;;;;5056354;28;20032;-50
2023/02/01 09:04:42;;;;;;;73.32;50.55;;;11.30;99.90;;;;;;5055549;28;20484;-50
2023/02/01 09:07:12;;;;;;;70.82;49.38;;;11.20;99.90;;;;;;5055092;28;20548;-50
2023/02/01 09:09:38;;;;;;;85.57;56.90;;;11.20;99.90;;;;;;5056156;28;20033;-50
2023/02/01 09:12:04;;;;;;;89.25;54.38;;;11.40;99.90;;;;;;5056006;28;20083;-50
2023/02/01 09:14:30;;;;;;;87.35;55.80;;;11.40;99.90;;;;;;5037105;28;20037;-49
2023/02/01 09:16:56;;;;;;;79.50;50.72;;;11.40;99.90;;;;;;5055864;28;20025;-51
2023/02/01 09:19:22;;;;;;;55.58;36.70;;;11.50;99.90;;;;;;5055897;28;20025;-49
2023/02/01 09:21:47;;;;;;;60.78;38.17;;;11.90;99.90;;;;;;5087335;28;20033;-51
2023/02/01 09:24:13;;;;;;;81.82;46.92;;;12.40;99.90;;;;;;5055612;28;20029;-50
2023/02/01 09:26:39;;;;;;;83.85;51.70;;;;;;;;;;5053954;28;20033;-50
2023/02/01 09:29:12;;;;;;;83.40;58.65;;;;;;;;;;5070457;28;20032;-50
2023/02/01 09:31:39;;;;;;;65.93;46.05;;;13.70;99.90;;;;;;5087809;28;20628;-50
2023/02/01 09:34:05;;;;;;;58.63;41.42;;;;;;;;;;5055593;28;20101;-50
2023/02/01 09:36:32;;;;;;;65.88;42.08;;;;;;;;;;5055873;28;20044;-50
2023/02/01 09:38:59;;;;;;;85.43;43.95;;;;;;;;;;5055664;28;20469;-50
2023/02/01 09:41:31;;;;;;;29.17;20.00;;;;;;;;;;5055327;28;20032;-50
2023/02/01 09:44:14;;;;;;;28.75;17.70;;;18.20;99.90;;;;;;5055345;28;20074;-50
2023/02/01 09:46:40;;;;;;;22.73;13.82;;;;;;;;;;5055530;28;20036;-50
2023/02/01 09:49:33;;;;;;;25.42;15.20;;;20.70;91.10;;;;;;5055387;28;20423;-50
2023/02/01 09:52:01;;;;;;;21.63;14.45;;;;;;;;;;5053111;28;20041;-50
2023/02/01 09:54:38;;;;;;;20.15;12.85;;;21.30;85.50;;;;;;5053009;28;20044;-50
2023/02/01 09:57:07;;;;;;;22.05;13.57;;;;;;;;;;5052962;28;20052;-50
2023/02/01 09:59:40;;;;;;;19.55;15.68;;;22.10;82.00;;;;;;5050389;28;20025;-48
2023/02/01 10:02:27;;;;;;;17.35;13.52;;;;;;;;;;5052899;28;20033;-49
2023/02/01 10:04:58;;;;;;;18.83;14.25;;;23.20;80.40;;;;;;5019518;28;20045;-48
2023/02/01 10:07:55;;;;;;;57.45;28.83;;;23.00;76.30;;;;;;5052838;28;20111;-49
2023/02/01 10:10:30;;;;;;;17.45;14.90;;;23.90;77.10;;;;;;5051779;28;20076;-49
2023/02/01 10:13:08;;;;;;;10.40;9.25;;;24.80;75.30;;;;;;5052716;28;20124;-48
2023/02/01 10:16:05;;;;;;;37.22;26.08;;;24.90;72.00;;;;;;5052610;28;20488;-48
2023/02/01 10:18:47;;;;;;;8.65;7.53;;;25.00;70.40;;;;;;5050514;28;20450;-49
2023/02/01 10:21:30;;;;;;;31.92;21.67;;;24.30;70.80;;;;;;5052508;28;20122;-49
2023/02/01 10:24:19;;;;;;;10.10;9.07;;;24.20;69.90;;;;;;5052522;28;20036;-49
2023/02/01 10:26:47;;;;;;;13.65;10.90;;;;;;;;;;5012585;28;20034;-48
2023/02/01 10:29:19;;;;;;;9.77;5.72;;;25.20;67.30;;;;;;5008790;28;20045;-49
2023/02/01 10:31:45;;;;;;;5.70;4.72;;;24.60;68.30;;;;;;5032231;28;20471;-49
2023/02/01 10:34:31;;;;;;;6.75;4.13;;;25.20;68.80;;;;;;5032513;28;20083;-49
2023/02/01 10:37:23;;;;;;;5.13;3.75;;;24.10;66.40;;;;;;5032231;28;20021;-49
2023/02/01 10:39:49;;;;;;;;;;;23.10;65.80;;;;;;5032766;28;20029;-49
2023/02/01 10:42:19;;;;;;;171.13;114.35;;;;;;;;;;4982804;28;19921;-50
2023/02/01 10:44:47;;;;;;;126.15;86.07;;;23.50;94.70;;;;;;5032009;28;20375;-48
2023/02/01 10:47:15;;;;;;;6.50;5.90;;;;;;;;;;5032175;28;20473;-49
2023/02/01 10:49:50;;;;;;;6.60;5.65;;;24.80;65.20;;;;;;5031911;28;20686;-49
2023/02/01 10:52:43;;;;;;;6.97;6.28;;;25.10;66.30;;;;;;5032054;28;20092;-49
2023/02/01 10:55:31;;;;;;;5.32;4.78;;;25.10;65.30;;;;;;5031993;28;20033;-49
2023/02/01 10:58:26;;;;;;;5.32;4.85;;;;;;;;;;5031886;28;20085;-49
2023/02/01 11:00:56;;;;;;;11.68;6.10;;;25.70;64.00;;;;;;4992475;28;20035;-49
2023/02/01 11:03:54;;;;;;;11.75;6.40;;;25.70;65.00;;;;;;4979733;28;20630;-49
2023/02/01 11:06:31;;;;;;;6.85;5.20;;;25.70;64.70;;;;;;4953029;29;20039;-48
2023/02/01 11:09:06;;;;;;;5.07;4.38;;;25.40;64.50;;;;;;4953688;29;20035;-49
2023/02/01 11:11:52;;;;;;;11.65;5.45;;;25.20;64.50;;;;;;4953461;29;20058;-48
2023/02/01 11:14:25;;;;;;;4.47;4.07;;;25.30;64.90;;;;;;4953651;28;20038;-49
2023/02/01 11:17:17;;;;;;;4.72;3.40;;;25.50;63.80;;;;;;4953598;28;20470;-48
2023/02/01 11:19:46;;;;;;;5.05;4.20;;;24.70;64.30;;;;;;4953447;28;20050;-49
2023/02/01 11:22:13;;;;;;;6.95;4.47;;;24.80;64.60;;;;;;4962902;28;20047;-48
2023/02/01 11:24:44;;;;;;;5.13;4.63;;;24.80;64.00;;;;;;4972736;28;20166;-49
2023/02/01 11:27:19;;;;;;;6.47;5.78;;;24.70;64.60;;;;;;4971658;28;20031;-49
2023/02/01 11:29:50;;;;;;;6.05;5.45;;;23.10;73.90;;;;;;4972400;28;20535;-49
2023/02/01 11:32:19;;;;;;;10.70;6.03;;;23.50;82.70;;;;;;4972889;28;20049;-48
2023/02/01 11:34:52;;;;;;;8.10;6.95;;;23.70;66.30;;;;;;4972420;28;20490;-49
2023/02/01 11:37:23;;;;;;;6.05;5.07;;;23.20;65.30;;;;;;5010020;28;20033;-49
2023/02/01 11:40:01;;;;;;;4.90;4.40;;;22.60;64.70;;;;;;5051548;28;20061;-49
2023/02/01 11:42:28;;;;;;;7.35;4.10;;;22.50;66.10;;;;;;5053675;28;20104;-49
2023/02/01 11:45:34;;;;;;;4.28;3.25;;;22.70;66.70;;;;;;5049680;28;20051;-48
2023/02/01 11:48:00;;;;;;;11.15;5.40;;;22.00;65.60;;;;;;5052449;28;20029;-49
2023/02/01 11:50:32;;;;;;;8.15;5.45;;;21.60;65.60;;;;;;5052882;28;20055;-49
2023/02/01 11:53:17;;;;;;;;;;;21.00;66.50;;;;;;5053137;28;20404;-48
2023/02/01 11:56:01;;;;;;;5.57;4.40;;;19.10;67.10;;;;;;5029894;28;20181;-49
2023/02/01 11:58:51;;;;;;;5.70;4.50;;;19.10;69.60;;;;;;4999652;28;20065;-47
2023/02/01 12:01:28;;;;;;;6.07;4.60;;;19.40;69.60;;;;;;4978560;28;20102;-53
2023/02/01 12:04:13;;;;;;;5.60;4.35;;;18.70;69.60;;;;;;5011132;28;20041;-51
2023/02/01 12:06:49;;;;;;;4.82;4.22;;;18.20;69.10;;;;;;5017132;28;20494;-48
2023/02/01 12:09:42;;;;;;;6.40;4.30;;;18.20;70.20;;;;;;5030888;28;20497;-47
2023/02/01 12:12:31;;;;;;;6.32;4.10;;;18.50;70.00;;;;;;5030794;28;20129;-44
2023/02/01 12:15:28;;;;;;;5.07;3.63;;;17.90;69.60;;;;;;5027657;28;20072;-48
2023/02/01 12:18:21;;;;;;;5.63;3.70;;;17.90;70.80;;;;;;5030604;28;20046;-48
2023/02/01 12:20:49;;;;;;;7.25;5.32;;;18.10;71.10;;;;;;4997710;28;20041;-48
2023/02/01 12:23:29;;;;;;;6.60;4.55;;;;;;;;;;4997504;28;20046;-48
2023/02/01 12:26:04;;;;;;;4.13;2.95;;;;;;;;;;5029442;28;20034;-48
2023/02/01 12:28:33;;;;;;;5.72;2.58;;;;;;;;;;4995719;28;20124;-49
2023/02/01 12:31:23;;;;;;;3.10;2.38;;;16.00;72.00;;;;;;5030223;28;20110;-48
2023/02/01 12:34:05;;;;;;;3.53;2.45;;;15.70;73.90;;;;;;5051483;28;20440;-48
2023/02/01 12:36:55;;;;;;;3.97;2.58;;;15.70;74.50;;;;;;5056722;28;20048;-48
2023/02/01 12:39:29;;;;;;;4.32;2.55;;;15.90;74.90;;;;;;5071530;28;20049;-48
2023/02/01 12:42:10;;;;;;;2.88;1.65;;;15.70;75.90;;;;;;5056419;28;20043;-48
2023/02/01 12:44:50;;;;;;;4.28;2.08;;;15.20;75.40;;;;;;5052584;28;20029;-48
2023/02/01 12:47:25;;;;;;;3.00;1.88;;;;;;;;;;5032044;28;20038;-52
2023/02/01 12:50:12;;;;;;;4.00;2.30;;;14.80;99.90;;;;;;5055959;28;20059;-50
2023/02/01 12:52:43;;;;;;;5.60;3.58;;;;;;;;;;5055577;28;20037;-47
2023/02/01 12:55:24;;;;;;;3.55;2.40;;;14.70;93.90;;;;;;5054559;28;20025;-46
2023/02/01 12:57:53;;;;;;;6.00;3.45;;;15.20;94.60;;;;;;5052056;28;20043;-46
2023/02/01 13:00:22;;;;;;;5.70;3.67;;;15.70;94.50;;;;;;5055698;28;20057;-46
2023/02/01 13:03:19;;;;;;;3.78;2.50;;;15.00;76.80;;;;;;5055892;28;20480;-47
2023/02/01 13:06:07;;;;;;;7.03;3.88;;;15.00;76.30;;;;;;5051271;28;20029;-48
2023/02/01 13:08:47;;;;;;;4.32;3.00;;;14.90;76.00;;;;;;5053452;28;20036;-49
2023/02/01 13:11:35;;;;;;;7.75;5.10;;;15.00;76.60;;;;;;5051878;28;20057;-48
2023/02/01 13:14:01;;;;;;;4.32;2.47;;;;;;;;;;5056274;28;20263;-49
2023/02/01 13:16:29;;;;;;;3.67;2.00;;;14.30;77.60;;;;;;5056089;28;20057;-47
2023/02/01 13:19:09;;;;;;;3.45;2.10;;;13.70;77.30;;;;;;5037197;28;20205;-47
2023/02/01 13:21:37;;;;;;;5.20;2.60;;;;;;;;;;5055710;28;20082;-48
2023/02/01 13:24:04;;;;;;;4.43;2.05;;;13.90;91.50;;;;;;5054110;28;20037;-47
2023/02/01 13:26:29;;;;;;;4.55;2.42;;;13.50;78.20;;;;;;5056041;28;20392;-47
2023/02/01 13:29:06;;;;;;;3.67;2.38;;;13.60;79.40;;;;;;5055616;28;20036;-47
2023/02/01 13:32:00;;;;;;;3.45;2.20;;;13.80;79.90;;;;;;5055586;28;20044;-49
2023/02/01 13:34:45;;;;;;;3.28;1.80;;;;;;;;;;5055699;28;20106;-49
2023/02/01 13:37:23;;;;;;;3.55;2.00;;;13.20;99.30;;;;;;5055434;28;20033;-50
2023/02/01 13:40:07;;;;;;;3.92;2.38;;;13.10;81.70;;;;;;5055405;28;20040;-49
2023/02/01 13:42:50;;;;;;;4.00;2.30;;;;;;;;;;5055831;28;20054;-50
2023/02/01 13:45:23;;;;;;;2.90;1.83;;;12.50;84.10;;;;;;5055214;28;20385;-50
2023/02/01 13:47:55;;;;;;;7.13;2.70;;;12.20;85.60;;;;;;5055253;28;20032;-50
2023/02/01 13:50:29;;;;;;;4.75;2.88;;;12.00;86.30;;;;;;5055420;28;20036;-50
2023/02/01 13:52:59;;;;;;;5.32;2.78;;;11.80;87.00;;;;;;5055321;28;20040;-50
2023/02/01 13:55:30;;;;;;;4.70;2.20;;;;;;;;;;5055053;28;20045;-50